createdAt,value
2022-10-18T00:01:03.074Z,14.20
2022-10-18T00:06:10.206Z,14.43
2022-10-18T00:08:38.998Z,15.27
2022-10-18T00:11:06.586Z,15.23
2022-10-18T00:13:34.144Z,15.00
2022-10-18T00:16:04.341Z,15.85
2022-10-18T00:18:32.132Z,16.02
2022-10-18T00:21:02.261Z,12.43
2022-10-18T00:23:33.562Z,14.07
2022-10-18T00:26:05.580Z,13.35
2022-10-18T00:28:34.478Z,17.25
2022-10-18T00:31:17.783Z,14.77
2022-10-18T00:36:14.707Z,13.93
2022-10-18T00:38:44.992Z,13.63
2022-10-18T00:41:15.904Z,13.20
2022-10-18T00:43:58.432Z,17.13
2022-10-18T00:46:28.813Z,14.45
2022-10-18T00:48:59.656Z,15.82
2022-10-18T00:51:35.366Z,13.93
2022-10-18T00:54:03.910Z,15.82
2022-10-18T00:56:33.448Z,15.70
2022-10-18T00:59:01.142Z,14.75
2022-10-18T01:01:28.700Z,15.45
2022-10-18T01:03:56.768Z,16.58
2022-10-18T01:06:24.914Z,14.95
2022-10-18T01:09:06.639Z,14.27
2022-10-18T01:11:59.681Z,16.23
2022-10-18T01:14:51.844Z,14.03
2022-10-18T01:17:33.040Z,13.95
2022-10-18T01:20:27.108Z,14.88
2022-10-18T01:23:19.145Z,14.48
2022-10-18T01:26:04.658Z,15.82
2022-10-18T01:28:49.232Z,14.95
2022-10-18T01:31:32.299Z,13.27
2022-10-18T01:34:14.143Z,15.93
2022-10-18T01:36:48.666Z,16.25
2022-10-18T01:39:21.405Z,12.07
2022-10-18T01:41:51.621Z,15.43
2022-10-18T01:44:24.325Z,15.25
2022-10-18T01:46:54.724Z,13.90
2022-10-18T01:49:22.579Z,13.90
2022-10-18T01:51:49.867Z,14.13
2022-10-18T01:54:24.773Z,15.68
2022-10-18T01:57:03.697Z,12.55
2022-10-18T01:59:45.026Z,12.38
2022-10-18T02:02:12.615Z,13.90
2022-10-18T02:04:59.786Z,14.88
2022-10-18T02:08:00.275Z,15.80
2022-10-18T02:10:41.883Z,14.75
2022-10-18T02:13:15.487Z,16.30
2022-10-18T02:15:48.543Z,14.18
2022-10-18T02:18:26.060Z,16.73
2022-10-18T02:20:54.586Z,16.15
2022-10-18T02:23:24.517Z,12.63
2022-10-18T02:25:52.682Z,18.48
2022-10-18T02:28:21.074Z,14.10
2022-10-18T02:30:53.282Z,17.25
2022-10-18T02:33:44.115Z,16.15
2022-10-18T02:36:19.261Z,14.35
2022-10-18T02:38:50.307Z,14.05
2022-10-18T02:41:27.789Z,14.35
2022-10-18T02:43:55.304Z,15.60
2022-10-18T02:46:22.955Z,15.50
2022-10-18T02:48:50.331Z,14.15
2022-10-18T02:51:17.567Z,16.63
2022-10-18T02:53:45.138Z,14.43
2022-10-18T02:56:12.194Z,12.38
2022-10-18T02:58:39.696Z,15.45
2022-10-18T03:03:48.648Z,15.63
2022-10-18T03:06:16.103Z,14.23
2022-10-18T03:08:43.178Z,15.80
2022-10-18T03:11:10.643Z,16.02
2022-10-18T03:13:38.025Z,12.18
2022-10-18T03:16:05.468Z,15.25
2022-10-18T03:18:32.850Z,15.82
2022-10-18T03:21:04.871Z,17.02
2022-10-18T03:23:32.064Z,14.73
2022-10-18T03:25:59.523Z,12.65
2022-10-18T03:28:29.105Z,13.38
2022-10-18T03:31:04.499Z,13.82
2022-10-18T03:33:33.169Z,18.33
2022-10-18T03:36:00.686Z,15.32
2022-10-18T03:38:30.587Z,16.20
2022-10-18T03:40:57.955Z,16.48
2022-10-18T03:43:25.034Z,15.30
2022-10-18T03:45:52.797Z,13.48
2022-10-18T03:48:20.053Z,14.27
2022-10-18T03:50:47.450Z,15.52
2022-10-18T03:53:14.824Z,16.63
2022-10-18T03:55:42.299Z,15.63
2022-10-18T03:58:09.502Z,13.30
2022-10-18T04:00:36.998Z,16.50
2022-10-18T04:03:04.240Z,15.82
2022-10-18T04:05:31.692Z,14.95
2022-10-18T04:07:58.886Z,14.52
2022-10-18T04:10:31.762Z,13.82
2022-10-18T04:12:58.862Z,18.70
2022-10-18T04:15:26.546Z,13.85
2022-10-18T04:17:53.825Z,15.15
2022-10-18T04:20:21.133Z,14.60
2022-10-18T04:22:49.216Z,16.50
2022-10-18T04:25:17.322Z,17.70
2022-10-18T04:27:44.650Z,15.23
2022-10-18T04:30:14.653Z,15.63
2022-10-18T04:32:44.142Z,16.17
2022-10-18T04:35:13.865Z,15.27
2022-10-18T04:37:41.133Z,15.38
2022-10-18T04:40:09.335Z,14.90
2022-10-18T04:42:36.502Z,18.80
2022-10-18T04:45:03.987Z,16.05
2022-10-18T04:47:33.666Z,18.67
2022-10-18T04:50:01.182Z,12.70
2022-10-18T04:52:28.832Z,16.67
2022-10-18T04:54:56.242Z,16.02
2022-10-18T04:57:23.430Z,15.93
2022-10-18T04:59:52.883Z,16.33
2022-10-18T05:02:22.610Z,17.02
2022-10-18T05:04:51.159Z,16.58
2022-10-18T05:07:18.331Z,17.83
2022-10-18T05:09:45.624Z,14.52
2022-10-18T05:12:14.938Z,17.83
2022-10-18T05:14:42.334Z,16.10
2022-10-18T05:17:09.686Z,17.35
2022-10-18T05:19:37.019Z,13.65
2022-10-18T05:22:04.340Z,19.48
2022-10-18T05:24:31.778Z,18.75
2022-10-18T05:26:58.816Z,18.35
2022-10-18T05:31:58.230Z,18.20
2022-10-18T05:34:25.507Z,16.27
2022-10-18T05:36:52.937Z,17.42
2022-10-18T05:39:20.601Z,16.00
2022-10-18T05:41:47.684Z,20.92
2022-10-18T05:44:17.247Z,22.30
2022-10-18T05:46:44.431Z,21.33
2022-10-18T05:49:14.814Z,20.40
2022-10-18T05:51:41.986Z,23.90
2022-10-18T05:54:14.125Z,23.17
2022-10-18T05:56:41.390Z,18.42
2022-10-18T05:59:08.748Z,21.73
2022-10-18T06:01:39.606Z,21.55
2022-10-18T06:04:09.925Z,15.43
2022-10-18T06:06:37.953Z,20.48
2022-10-18T06:09:08.181Z,19.23
2022-10-18T06:11:37.776Z,13.32
2022-10-18T06:14:05.536Z,15.02
2022-10-18T06:19:02.549Z,16.27
2022-10-18T06:21:29.925Z,19.17
2022-10-18T06:23:59.162Z,19.83
2022-10-18T06:26:28.309Z,18.15
2022-10-18T06:28:56.001Z,21.40
2022-10-18T06:31:23.323Z,17.70
2022-10-18T06:33:53.207Z,18.88
2022-10-18T06:36:23.630Z,21.35
2022-10-18T06:38:54.420Z,15.38
2022-10-18T06:41:21.602Z,18.75
2022-10-18T06:43:53.793Z,16.92
2022-10-18T06:46:24.556Z,16.10
2022-10-18T06:48:54.816Z,14.38
2022-10-18T06:51:24.092Z,13.95
2022-10-18T06:54:06.136Z,14.32
2022-10-18T06:56:39.272Z,13.52
2022-10-18T06:59:08.840Z,13.77
2022-10-18T07:01:36.622Z,16.23
2022-10-18T07:04:04.304Z,13.75
2022-10-18T07:06:31.476Z,13.50
2022-10-18T07:09:01.033Z,12.60
2022-10-18T07:11:28.539Z,16.80
2022-10-18T07:14:01.012Z,15.25
2022-10-18T07:18:58.185Z,12.35
2022-10-18T07:21:26.876Z,11.75
2022-10-18T07:23:56.581Z,11.30
2022-10-18T07:26:32.065Z,12.18
2022-10-18T07:29:04.416Z,11.63
2022-10-18T07:31:31.792Z,11.60
2022-10-18T07:33:59.372Z,11.70
2022-10-18T07:36:28.606Z,11.50
2022-10-18T07:38:56.133Z,13.05
2022-10-18T07:41:26.046Z,11.85
2022-10-18T07:43:56.020Z,12.85
2022-10-18T07:46:23.372Z,12.35
2022-10-18T07:48:51.133Z,12.18
2022-10-18T07:51:19.820Z,12.25
2022-10-18T07:53:47.825Z,10.82
2022-10-18T07:56:17.272Z,12.18
2022-10-18T07:58:46.428Z,10.63
2022-10-18T08:01:14.770Z,11.82
2022-10-18T08:03:43.227Z,13.30
2022-10-18T08:06:12.798Z,11.75
2022-10-18T08:08:41.553Z,11.73
2022-10-18T08:11:08.861Z,11.73
2022-10-18T08:13:36.336Z,14.90
2022-10-18T08:16:12.205Z,10.98
2022-10-18T08:18:40.169Z,11.27
2022-10-18T08:21:09.779Z,12.27
2022-10-18T08:23:40.301Z,10.77
2022-10-18T08:26:10.838Z,10.38
2022-10-18T08:28:39.162Z,10.70
2022-10-18T08:31:08.528Z,14.02
2022-10-18T08:33:35.961Z,13.10
2022-10-18T08:36:05.571Z,13.90
2022-10-18T08:38:37.227Z,12.00
2022-10-18T08:44:20.844Z,11.90
2022-10-18T08:46:51.215Z,11.70
2022-10-18T08:49:51.303Z,10.97
2022-10-18T08:52:47.577Z,11.05
2022-10-18T08:55:43.015Z,14.18
2022-10-18T08:58:17.953Z,13.90
2022-10-18T09:01:12.353Z,30.98
2022-10-18T09:04:10.474Z,14.85
2022-10-18T09:06:47.069Z,11.18
2022-10-18T09:09:31.638Z,13.68
2022-10-18T09:12:37.055Z,12.20
2022-10-18T09:15:15.176Z,12.80
2022-10-18T09:18:15.099Z,15.57
2022-10-18T09:21:15.056Z,13.38
2022-10-18T09:24:08.692Z,11.55
2022-10-18T09:26:52.928Z,11.60
2022-10-18T09:29:37.736Z,11.35
2022-10-18T09:32:25.352Z,14.10
2022-10-18T09:35:04.999Z,13.13
2022-10-18T09:37:34.683Z,14.13
2022-10-18T09:40:23.327Z,13.65
2022-10-18T09:43:02.665Z,16.58
2022-10-18T09:45:36.875Z,13.18
2022-10-18T09:48:12.443Z,12.82
2022-10-18T09:51:02.157Z,13.25
2022-10-18T09:53:56.700Z,12.57
2022-10-18T09:56:35.636Z,13.32
2022-10-18T09:59:24.641Z,16.55
2022-10-18T10:01:52.206Z,14.25
2022-10-18T10:04:19.629Z,14.73
2022-10-18T10:06:52.209Z,15.52
2022-10-18T10:09:36.227Z,15.65
2022-10-18T10:12:04.122Z,14.38
2022-10-18T10:14:42.976Z,17.50
2022-10-18T10:17:25.569Z,13.45
2022-10-18T10:20:02.209Z,13.10
2022-10-18T10:22:37.357Z,15.13
2022-10-18T10:25:08.083Z,13.90
2022-10-18T10:27:53.992Z,15.48
2022-10-18T10:30:26.839Z,15.10
2022-10-18T10:32:56.179Z,18.20
2022-10-18T10:35:52.626Z,14.30
2022-10-18T10:38:29.633Z,18.05
2022-10-18T10:40:57.769Z,16.05
2022-10-18T10:43:39.354Z,15.50
2022-10-18T10:46:13.036Z,19.17
2022-10-18T10:48:50.622Z,16.98
2022-10-18T10:51:39.025Z,15.57
2022-10-18T10:54:14.892Z,14.88
2022-10-18T10:57:19.765Z,16.48
2022-10-18T10:59:57.294Z,15.48
2022-10-18T11:02:35.552Z,20.88
2022-10-18T11:05:26.186Z,15.25
2022-10-18T11:07:58.237Z,15.90
2022-10-18T11:10:31.124Z,17.30
2022-10-18T11:13:01.560Z,15.88
2022-10-18T11:15:55.696Z,24.30
2022-10-18T11:18:34.773Z,17.63
2022-10-18T11:21:17.453Z,19.70
2022-10-18T11:23:45.363Z,16.53
2022-10-18T11:26:12.933Z,16.00
2022-10-18T11:28:59.425Z,20.15
2022-10-18T11:32:03.982Z,22.15
2022-10-18T11:35:08.549Z,20.40
2022-10-18T11:37:46.448Z,19.15
2022-10-18T11:40:38.079Z,21.20
2022-10-18T11:44:01.129Z,20.35
2022-10-18T11:46:51.591Z,22.90
2022-10-18T11:49:49.316Z,20.42
2022-10-18T11:52:57.878Z,19.35
2022-10-18T11:55:44.212Z,20.63
2022-10-18T11:58:28.115Z,17.08
2022-10-18T12:00:59.283Z,17.58
2022-10-18T12:03:53.091Z,18.33
2022-10-18T12:06:28.388Z,18.42
2022-10-18T12:09:21.881Z,18.67
2022-10-18T12:14:46.406Z,18.55
2022-10-18T12:17:46.052Z,17.75
2022-10-18T12:20:17.355Z,18.45
2022-10-18T12:22:56.214Z,18.73
2022-10-18T12:25:23.883Z,22.20
2022-10-18T12:28:15.380Z,22.40
2022-10-18T12:30:54.798Z,19.48
2022-10-18T12:33:29.086Z,21.30
2022-10-18T12:36:21.555Z,21.05
2022-10-18T12:39:01.643Z,20.67
2022-10-18T12:41:33.718Z,19.65
2022-10-18T12:44:22.150Z,17.13
2022-10-18T12:46:55.664Z,17.77
2022-10-18T12:49:40.254Z,19.30
2022-10-18T12:52:23.285Z,19.75
2022-10-18T12:55:15.300Z,20.80
2022-10-18T12:57:54.054Z,17.98
2022-10-18T13:00:30.611Z,18.50
2022-10-18T13:03:09.720Z,18.13
2022-10-18T13:06:02.940Z,16.52
2022-10-18T13:08:32.774Z,22.48
2022-10-18T13:11:09.077Z,23.10
2022-10-18T13:14:09.536Z,17.48
2022-10-18T13:16:55.478Z,19.48
2022-10-18T13:19:22.579Z,21.65
2022-10-18T13:21:56.169Z,20.30
2022-10-18T13:25:03.416Z,18.30
2022-10-18T13:28:00.591Z,16.23
2022-10-18T13:30:48.717Z,17.63
2022-10-18T13:33:25.631Z,18.45
2022-10-18T13:36:25.886Z,16.52
2022-10-18T13:38:56.145Z,20.20
2022-10-18T13:41:26.870Z,17.17
2022-10-18T13:44:31.306Z,18.33
2022-10-18T13:46:58.387Z,18.30
2022-10-18T13:49:39.743Z,21.55
2022-10-18T13:52:32.049Z,16.60
2022-10-18T13:55:37.351Z,23.90
2022-10-18T13:58:29.265Z,17.67
2022-10-18T14:01:42.455Z,23.35
2022-10-18T14:05:23.728Z,22.60
2022-10-18T14:07:59.871Z,22.23
2022-10-18T14:10:57.384Z,25.90
2022-10-18T14:13:36.679Z,23.88
2022-10-18T14:16:26.328Z,24.65
2022-10-18T14:19:01.528Z,28.15
2022-10-18T14:21:36.197Z,24.40
2022-10-18T14:24:21.270Z,26.02
2022-10-18T14:26:48.627Z,29.55
2022-10-18T14:29:20.418Z,30.10
2022-10-18T14:31:54.627Z,31.02
2022-10-18T14:34:22.361Z,28.45
2022-10-18T14:36:50.455Z,28.33
2022-10-18T14:39:27.202Z,28.15
2022-10-18T14:41:56.026Z,28.63
2022-10-18T14:44:33.036Z,26.80
2022-10-18T14:47:22.500Z,27.83
2022-10-18T14:49:50.820Z,25.60
2022-10-18T14:52:26.235Z,21.40
2022-10-18T14:54:58.153Z,26.90
2022-10-18T14:57:33.724Z,17.67
2022-10-18T15:00:08.706Z,17.65
2022-10-18T15:02:38.462Z,17.98
2022-10-18T15:05:08.788Z,15.75
2022-10-18T15:07:37.055Z,15.55
2022-10-18T15:10:06.157Z,19.58
2022-10-18T15:12:41.188Z,13.63
2022-10-18T15:15:26.888Z,16.20
2022-10-18T15:20:37.947Z,13.85
2022-10-18T15:23:26.234Z,13.45
2022-10-18T15:26:11.556Z,13.20
2022-10-18T15:28:47.610Z,11.75
2022-10-18T15:31:24.745Z,9.90
2022-10-18T15:33:52.824Z,8.13
2022-10-18T15:36:38.568Z,6.43
2022-10-18T15:39:16.767Z,8.27
2022-10-18T15:41:51.557Z,8.05
2022-10-18T15:44:49.908Z,5.95
2022-10-18T15:47:20.211Z,8.18
2022-10-18T15:49:53.587Z,6.88
2022-10-18T15:52:38.275Z,7.78
2022-10-18T15:55:29.198Z,5.15
2022-10-18T15:58:23.629Z,5.60
2022-10-18T16:03:20.582Z,5.47
2022-10-18T16:05:47.974Z,6.38
2022-10-18T16:08:24.356Z,4.38
2022-10-18T16:10:52.880Z,6.07
2022-10-18T16:13:20.454Z,7.40
2022-10-18T16:15:47.899Z,9.02
2022-10-18T16:18:18.676Z,5.68
2022-10-18T16:20:46.766Z,5.93
2022-10-18T16:23:26.528Z,9.88
2022-10-18T16:25:54.307Z,6.47
2022-10-18T16:28:24.764Z,5.40
2022-10-18T16:31:01.015Z,7.90
2022-10-18T16:33:28.482Z,6.18
2022-10-18T16:35:55.831Z,7.72
2022-10-18T16:38:35.168Z,6.32
2022-10-18T16:41:07.276Z,20.85
2022-10-18T16:43:35.281Z,18.13
2022-10-18T16:46:04.265Z,12.07
2022-10-18T16:48:31.883Z,8.23
2022-10-18T16:50:59.579Z,11.50
2022-10-18T16:53:27.100Z,14.55
2022-10-18T16:55:56.927Z,11.65
2022-10-18T16:58:25.684Z,10.52
2022-10-18T17:00:53.222Z,10.63
2022-10-18T17:03:23.434Z,13.05
2022-10-18T17:05:53.791Z,13.02
2022-10-18T17:08:24.028Z,13.48
2022-10-18T17:10:53.418Z,11.20
2022-10-18T17:13:21.643Z,9.20
2022-10-18T17:15:49.880Z,5.80
2022-10-18T17:18:23.770Z,13.75
2022-10-18T17:20:50.951Z,13.10
2022-10-18T17:23:18.878Z,28.73
2022-10-18T17:25:57.703Z,28.52
2022-10-18T17:28:35.973Z,10.52
2022-10-18T17:31:06.891Z,7.50
2022-10-18T17:33:34.748Z,6.63
2022-10-18T17:36:01.814Z,7.57
2022-10-18T17:38:29.174Z,12.43
2022-10-18T17:40:56.604Z,8.85
2022-10-18T17:43:23.960Z,6.93
2022-10-18T17:45:55.453Z,9.88
2022-10-18T17:48:23.831Z,8.05
2022-10-18T17:50:51.089Z,7.90
2022-10-18T17:53:18.454Z,26.10
2022-10-18T17:55:45.914Z,12.27
2022-10-18T17:58:13.267Z,7.43
2022-10-18T18:00:40.603Z,8.10
2022-10-18T18:03:08.434Z,10.25
2022-10-18T18:05:35.751Z,6.32
2022-10-18T18:08:04.215Z,6.65
2022-10-18T18:10:35.359Z,7.93
2022-10-18T18:13:02.921Z,27.40
2022-10-18T18:15:30.018Z,21.40
2022-10-18T18:17:59.935Z,9.10
2022-10-18T18:20:26.979Z,6.10
2022-10-18T18:22:54.683Z,6.80
2022-10-18T18:25:23.193Z,6.20
2022-10-18T18:27:50.583Z,6.78
2022-10-18T18:30:17.941Z,6.00
2022-10-18T18:32:45.696Z,5.00
2022-10-18T18:35:12.848Z,19.95
2022-10-18T18:37:40.121Z,8.23
2022-10-18T18:40:08.311Z,6.30
2022-10-18T18:42:35.900Z,5.65
2022-10-18T18:45:03.847Z,8.18
2022-10-18T18:47:31.359Z,7.70
2022-10-18T18:50:01.545Z,6.55
2022-10-18T18:52:29.112Z,8.25
2022-10-18T18:54:56.683Z,7.50
2022-10-18T18:57:24.059Z,7.82
2022-10-18T18:59:51.149Z,7.25
2022-10-18T19:02:20.279Z,7.20
2022-10-18T19:04:47.399Z,7.40
2022-10-18T19:07:14.807Z,8.10
2022-10-18T19:09:41.959Z,7.88
2022-10-18T19:12:09.253Z,7.55
2022-10-18T19:14:36.379Z,7.25
2022-10-18T19:17:03.990Z,9.00
2022-10-18T19:19:31.904Z,8.55
2022-10-18T19:22:02.311Z,9.00
2022-10-18T19:24:33.047Z,9.13
2022-10-18T19:27:03.329Z,7.00
2022-10-18T19:29:36.579Z,7.60
2022-10-18T19:34:33.904Z,9.43
2022-10-18T19:37:01.633Z,8.75
2022-10-18T19:39:34.318Z,7.80
2022-10-18T19:42:07.390Z,7.47
2022-10-18T19:44:36.094Z,7.28
2022-10-18T19:47:05.490Z,6.10
2022-10-18T19:49:33.017Z,7.18
2022-10-18T19:52:00.347Z,29.55
2022-10-18T19:54:27.976Z,22.45
2022-10-18T19:56:55.360Z,9.80
2022-10-18T19:59:22.895Z,4.97
2022-10-18T20:01:50.760Z,5.03
2022-10-18T20:04:17.970Z,5.53
2022-10-18T20:06:45.397Z,5.85
2022-10-18T20:09:19.414Z,5.35
2022-10-18T20:11:48.154Z,3.40
2022-10-18T20:14:15.409Z,4.95
2022-10-18T20:16:45.586Z,3.40
2022-10-18T20:19:12.671Z,3.03
2022-10-18T20:21:40.306Z,4.53
2022-10-18T20:24:08.116Z,4.85
2022-10-18T20:26:35.630Z,5.63
2022-10-18T20:29:04.014Z,6.68
2022-10-18T20:31:33.636Z,7.35
2022-10-18T20:34:05.984Z,5.65
2022-10-18T20:36:34.479Z,7.22
2022-10-18T20:39:02.157Z,10.75
2022-10-18T20:41:33.229Z,12.50
2022-10-18T20:44:05.848Z,12.88
2022-10-18T20:46:36.012Z,11.15
2022-10-18T20:49:04.271Z,8.40
2022-10-18T20:51:33.806Z,6.53
2022-10-18T20:54:02.889Z,6.70
2022-10-18T20:56:30.590Z,7.13
2022-10-18T20:58:57.770Z,8.07
2022-10-18T21:01:30.368Z,8.63
2022-10-18T21:04:00.143Z,10.27
2022-10-18T21:06:31.971Z,12.02
2022-10-18T21:09:10.336Z,11.45
2022-10-18T21:11:43.039Z,13.55
2022-10-18T21:14:16.207Z,32.93
2022-10-18T21:16:44.367Z,15.32
2022-10-18T21:19:23.395Z,14.10
2022-10-18T21:21:53.456Z,13.25
2022-10-18T21:24:24.042Z,12.73
2022-10-18T21:26:53.907Z,10.30
2022-10-18T21:29:22.761Z,12.88
2022-10-18T21:31:55.894Z,14.80
2022-10-18T21:34:23.108Z,11.53
2022-10-18T21:36:50.465Z,12.30
2022-10-18T21:39:21.307Z,13.55
2022-10-18T21:41:49.524Z,11.90
2022-10-18T21:44:17.763Z,13.65
2022-10-18T21:46:47.884Z,17.55
2022-10-18T21:49:16.024Z,12.95
2022-10-18T21:51:44.264Z,12.73
2022-10-18T21:54:13.645Z,12.98
2022-10-18T21:56:41.252Z,13.85
2022-10-18T21:59:11.068Z,14.88
2022-10-18T22:01:39.842Z,14.30
2022-10-18T22:04:16.230Z,15.82
2022-10-18T22:06:43.621Z,34.70
2022-10-18T22:09:10.650Z,46.92
2022-10-18T22:11:42.495Z,24.58
2022-10-18T22:14:10.276Z,15.02
2022-10-18T22:16:37.701Z,13.20
2022-10-18T22:19:07.862Z,12.90
2022-10-18T22:21:35.410Z,12.35
2022-10-18T22:24:06.978Z,11.30
2022-10-18T22:26:37.300Z,10.45
2022-10-18T22:29:12.017Z,12.20
2022-10-18T22:31:41.876Z,12.45
2022-10-18T22:34:12.778Z,11.07
2022-10-18T22:36:40.699Z,11.40
2022-10-18T22:39:08.100Z,11.35
2022-10-18T22:41:36.242Z,12.88
2022-10-18T22:44:04.156Z,10.55
2022-10-18T22:46:32.161Z,13.00
2022-10-18T22:48:59.432Z,12.80
2022-10-18T22:51:27.224Z,11.35
2022-10-18T22:53:57.008Z,11.25
2022-10-18T22:56:24.963Z,11.05
2022-10-18T22:58:52.280Z,12.38
2022-10-18T23:01:22.382Z,10.55
2022-10-18T23:03:57.469Z,12.38
2022-10-18T23:06:26.350Z,12.48
2022-10-18T23:08:55.170Z,12.25
2022-10-18T23:11:23.630Z,12.27
2022-10-18T23:13:51.476Z,14.63
2022-10-18T23:16:19.695Z,13.18
2022-10-18T23:18:55.255Z,13.20
2022-10-18T23:21:24.761Z,14.48
2022-10-18T23:23:53.696Z,15.85
2022-10-18T23:26:24.395Z,16.08
2022-10-18T23:28:53.398Z,17.73
2022-10-18T23:31:29.431Z,17.80
2022-10-18T23:33:59.079Z,17.67
2022-10-18T23:36:27.161Z,17.40
2022-10-18T23:38:54.676Z,18.88
2022-10-18T23:41:22.774Z,17.65
2022-10-18T23:43:50.108Z,18.40
2022-10-18T23:46:18.935Z,18.48
2022-10-18T23:48:49.027Z,16.95
2022-10-18T23:51:17.268Z,18.58
2022-10-18T23:53:44.880Z,20.10
2022-10-18T23:56:16.257Z,17.50
2022-10-18T23:58:44.985Z,16.95
